sensor_id;sensor_type;location;lat;lon;timestamp;pressure;altitude;pressure_sealevel;temperature;humidity
61337;BME280;47212;41.326;2.104;2023-03-13T00:00:05;101668.81;;;16.04;70.37
61337;BME280;47212;41.326;2.104;2023-03-13T00:05:11;101666.63;;;16.01;70.48
61337;BME280;47212;41.326;2.104;2023-03-13T00:10:17;101669.91;;;15.98;70.18
61337;BME280;47212;41.326;2.104;2023-03-13T00:15:25;101661.13;;;15.90;70.48
61337;BME280;47212;41.326;2.104;2023-03-13T00:20:33;101682.28;;;15.80;70.76
61337;BME280;47212;41.326;2.104;2023-03-13T00:25:40;101690.78;;;15.73;71.01
61337;BME280;47212;41.326;2.104;2023-03-13T00:30:49;101686.94;;;15.64;71.20
61337;BME280;47212;41.326;2.104;2023-03-13T00:36:05;101685.50;;;15.56;71.70
61337;BME280;47212;41.326;2.104;2023-03-13T00:41:16;101680.81;;;15.57;71.85
61337;BME280;47212;41.326;2.104;2023-03-13T00:46:30;101684.44;;;15.57;72.25
61337;BME280;47212;41.326;2.104;2023-03-13T00:51:34;101697.28;;;15.52;73.00
61337;BME280;47212;41.326;2.104;2023-03-13T00:56:40;101687.94;;;15.48;73.36
61337;BME280;47212;41.326;2.104;2023-03-13T01:01:48;101686.56;;;15.40;73.97
61337;BME280;47212;41.326;2.104;2023-03-13T01:06:52;101683.00;;;15.35;74.63
61337;BME280;47212;41.326;2.104;2023-03-13T01:12:04;101678.59;;;15.34;75.72
61337;BME280;47212;41.326;2.104;2023-03-13T01:17:22;101665.44;;;15.36;78.15
61337;BME280;47212;41.326;2.104;2023-03-13T01:22:29;101670.09;;;15.35;77.17
61337;BME280;47212;41.326;2.104;2023-03-13T01:27:37;101664.88;;;15.34;77.99
61337;BME280;47212;41.326;2.104;2023-03-13T01:32:41;101654.19;;;15.32;78.38
61337;BME280;47212;41.326;2.104;2023-03-13T01:37:56;101651.16;;;15.28;79.40
61337;BME280;47212;41.326;2.104;2023-03-13T01:43:16;101641.28;;;15.27;80.63
61337;BME280;47212;41.326;2.104;2023-03-13T01:48:58;101622.63;;;15.24;81.85
61337;BME280;47212;41.326;2.104;2023-03-13T02:00:20;101614.94;;;15.26;81.99
61337;BME280;47212;41.326;2.104;2023-03-13T02:05:27;101612.47;;;15.25;81.16
61337;BME280;47212;41.326;2.104;2023-03-13T02:10:42;101590.81;;;15.23;81.83
61337;BME280;47212;41.326;2.104;2023-03-13T02:20:46;101585.88;;;15.25;82.28
61337;BME280;47212;41.326;2.104;2023-03-13T02:25:55;101571.63;;;15.23;81.79
61337;BME280;47212;41.326;2.104;2023-03-13T02:31:07;101561.75;;;15.22;81.92
61337;BME280;47212;41.326;2.104;2023-03-13T02:36:40;101559.81;;;15.23;82.09
61337;BME280;47212;41.326;2.104;2023-03-13T02:41:52;101556.81;;;15.19;81.69
61337;BME280;47212;41.326;2.104;2023-03-13T02:46:59;101547.47;;;15.15;81.50
61337;BME280;47212;41.326;2.104;2023-03-13T02:52:32;101544.19;;;15.13;82.94
61337;BME280;47212;41.326;2.104;2023-03-13T02:57:49;101540.06;;;15.11;81.44
61337;BME280;47212;41.326;2.104;2023-03-13T03:02:58;101526.63;;;15.09;81.87
61337;BME280;47212;41.326;2.104;2023-03-13T03:08:07;101529.09;;;15.06;81.92
61337;BME280;47212;41.326;2.104;2023-03-13T03:13:26;101516.75;;;15.03;82.12
61337;BME280;47212;41.326;2.104;2023-03-13T03:18:31;101511.81;;;15.00;81.57
61337;BME280;47212;41.326;2.104;2023-03-13T03:23:37;101507.72;;;14.97;80.83
61337;BME280;47212;41.326;2.104;2023-03-13T03:29:01;101505.78;;;14.93;80.56
61337;BME280;47212;41.326;2.104;2023-03-13T03:34:20;101514.53;;;14.85;79.46
61337;BME280;47212;41.326;2.104;2023-03-13T03:39:29;101510.44;;;14.77;78.58
61337;BME280;47212;41.326;2.104;2023-03-13T03:44:50;101516.97;;;14.71;77.90
61337;BME280;47212;41.326;2.104;2023-03-13T03:50:00;101518.88;;;14.65;77.58
61337;BME280;47212;41.326;2.104;2023-03-13T03:55:31;101504.06;;;14.61;77.80
61337;BME280;47212;41.326;2.104;2023-03-13T04:00:42;101498.59;;;14.61;77.78
61337;BME280;47212;41.326;2.104;2023-03-13T04:05:53;101496.94;;;14.60;77.64
61337;BME280;47212;41.326;2.104;2023-03-13T04:11:02;101501.88;;;14.63;77.93
61337;BME280;47212;41.326;2.104;2023-03-13T04:16:10;101493.66;;;14.69;78.29
61337;BME280;47212;41.326;2.104;2023-03-13T04:21:21;101489.59;;;14.76;79.13
61337;BME280;47212;41.326;2.104;2023-03-13T04:26:36;101485.50;;;14.84;78.38
61337;BME280;47212;41.326;2.104;2023-03-13T04:31:53;101485.50;;;14.89;78.28
61337;BME280;47212;41.326;2.104;2023-03-13T04:37:17;101474.81;;;14.92;77.70
61337;BME280;47212;41.326;2.104;2023-03-13T04:42:35;101475.34;;;14.94;77.28
61337;BME280;47212;41.326;2.104;2023-03-13T04:48:21;101472.34;;;14.96;77.30
61337;BME280;47212;41.326;2.104;2023-03-13T04:53:34;101476.19;;;14.95;77.18
61337;BME280;47212;41.326;2.104;2023-03-13T04:59:11;101481.94;;;14.93;77.04
61337;BME280;47212;41.326;2.104;2023-03-13T05:19:06;101483.56;;;15.40;74.70
61337;BME280;47212;41.326;2.104;2023-03-13T05:24:11;101480.84;;;15.25;74.26
61337;BME280;47212;41.326;2.104;2023-03-13T05:29:39;101474.25;;;15.11;74.48
61337;BME280;47212;41.326;2.104;2023-03-13T05:34:52;101477.28;;;14.99;74.46
61337;BME280;47212;41.326;2.104;2023-03-13T05:40:18;101482.75;;;14.89;74.23
61337;BME280;47212;41.326;2.104;2023-03-13T05:45:40;101469.03;;;14.84;74.76
61337;BME280;47212;41.326;2.104;2023-03-13T05:50:58;101460.81;;;14.79;74.37
61337;BME280;47212;41.326;2.104;2023-03-13T05:56:20;101463.53;;;14.74;74.88
61337;BME280;47212;41.326;2.104;2023-03-13T06:01:58;101456.41;;;14.73;74.89
61337;BME280;47212;41.326;2.104;2023-03-13T06:07:08;101454.75;;;14.72;75.05
61337;BME280;47212;41.326;2.104;2023-03-13T06:12:11;101461.06;;;14.72;75.10
61337;BME280;47212;41.326;2.104;2023-03-13T06:17:13;101465.19;;;14.75;74.83
61337;BME280;47212;41.326;2.104;2023-03-13T06:22:16;101456.97;;;14.75;74.87
61337;BME280;47212;41.326;2.104;2023-03-13T06:27:18;101454.78;;;14.77;74.84
61337;BME280;47212;41.326;2.104;2023-03-13T06:32:20;101462.47;;;14.80;74.51
61337;BME280;47212;41.326;2.104;2023-03-13T06:37:23;101455.63;;;14.82;74.45
61337;BME280;47212;41.326;2.104;2023-03-13T06:42:26;101452.06;;;14.87;74.14
61337;BME280;47212;41.326;2.104;2023-03-13T06:47:30;101433.69;;;14.92;74.38
61337;BME280;47212;41.326;2.104;2023-03-13T06:52:33;101448.75;;;14.95;74.05
61337;BME280;47212;41.326;2.104;2023-03-13T06:57:49;101457.53;;;14.97;74.14
61337;BME280;47212;41.326;2.104;2023-03-13T07:02:53;101452.06;;;15.02;74.53
61337;BME280;47212;41.326;2.104;2023-03-13T07:07:56;101465.22;;;15.10;73.85
61337;BME280;47212;41.326;2.104;2023-03-13T07:13:01;101474.53;;;15.19;74.56
61337;BME280;47212;41.326;2.104;2023-03-13T07:18:07;101477.53;;;15.33;73.43
61337;BME280;47212;41.326;2.104;2023-03-13T07:23:09;101476.13;;;15.56;73.07
61337;BME280;47212;41.326;2.104;2023-03-13T07:28:12;101473.06;;;15.88;72.07
61337;BME280;47212;41.326;2.104;2023-03-13T07:33:15;101462.03;;;16.03;71.03
61337;BME280;47212;41.326;2.104;2023-03-13T07:38:18;101471.03;;;16.14;71.08
61337;BME280;47212;41.326;2.104;2023-03-13T07:43:21;101463.84;;;16.23;70.86
61337;BME280;47212;41.326;2.104;2023-03-13T07:48:28;101454.50;;;16.24;71.00
61337;BME280;47212;41.326;2.104;2023-03-13T07:53:31;101442.44;;;16.20;71.02
61337;BME280;47212;41.326;2.104;2023-03-13T07:58:36;101449.31;;;16.17;71.20
61337;BME280;47212;41.326;2.104;2023-03-13T08:03:39;101451.78;;;16.19;71.26
61337;BME280;47212;41.326;2.104;2023-03-13T08:08:42;101461.66;;;16.25;70.91
61337;BME280;47212;41.326;2.104;2023-03-13T08:13:45;101464.84;;;16.47;70.92
61337;BME280;47212;41.326;2.104;2023-03-13T08:18:51;101470.97;;;17.12;69.54
61337;BME280;47212;41.326;2.104;2023-03-13T08:23:55;101461.78;;;17.56;67.56
61337;BME280;47212;41.326;2.104;2023-03-13T08:29:03;101451.56;;;17.86;66.39
61337;BME280;47212;41.326;2.104;2023-03-13T08:34:06;101450.38;;;17.92;66.49
61337;BME280;47212;41.326;2.104;2023-03-13T08:39:13;101451.22;;;18.35;65.18
61337;BME280;47212;41.326;2.104;2023-03-13T08:44:18;101448.53;;;18.86;63.91
61337;BME280;47212;41.326;2.104;2023-03-13T08:49:21;101443.03;;;19.19;63.46
61337;BME280;47212;41.326;2.104;2023-03-13T08:54:23;101446.03;;;19.36;63.74
61337;BME280;47212;41.326;2.104;2023-03-13T08:59:27;101437.50;;;19.79;63.45
61337;BME280;47212;41.326;2.104;2023-03-13T09:04:29;101454.38;;;19.91;63.41
61337;BME280;47212;41.326;2.104;2023-03-13T09:09:31;101435.03;;;19.91;63.62
61337;BME280;47212;41.326;2.104;2023-03-13T09:14:33;101424.50;;;20.07;63.53
61337;BME280;47212;41.326;2.104;2023-03-13T09:19:37;101410.66;;;20.20;63.46
61337;BME280;47212;41.326;2.104;2023-03-13T09:24:49;101404.38;;;20.28;63.23
61337;BME280;47212;41.326;2.104;2023-03-13T09:29:52;101406.38;;;20.14;62.93
61337;BME280;47212;41.326;2.104;2023-03-13T09:35:03;101387.38;;;19.99;63.19
61337;BME280;47212;41.326;2.104;2023-03-13T09:40:12;101380.81;;;19.95;63.63
61337;BME280;47212;41.326;2.104;2023-03-13T09:50:39;101383.41;;;20.27;63.63
61337;BME280;47212;41.326;2.104;2023-03-13T09:55:44;101395.78;;;20.44;63.25
61337;BME280;47212;41.326;2.104;2023-03-13T10:00:53;101378.44;;;20.52;62.87
61337;BME280;47212;41.326;2.104;2023-03-13T10:06:00;101372.34;;;20.27;62.83
61337;BME280;47212;41.326;2.104;2023-03-13T10:21:32;101377.50;;;20.20;63.27
61337;BME280;47212;41.326;2.104;2023-03-13T10:26:36;101371.19;;;20.06;63.77
61337;BME280;47212;41.326;2.104;2023-03-13T10:31:38;101357.47;;;20.01;64.00
61337;BME280;47212;41.326;2.104;2023-03-13T10:36:54;101360.75;;;20.03;64.20
61337;BME280;47212;41.326;2.104;2023-03-13T10:42:08;101344.28;;;19.98;64.09
61337;BME280;47212;41.326;2.104;2023-03-13T10:47:18;101318.03;;;20.09;64.02
61337;BME280;47212;41.326;2.104;2023-03-13T10:57:42;101308.56;;;20.24;63.63
61337;BME280;47212;41.326;2.104;2023-03-13T11:02:53;101304.50;;;20.21;63.58
61337;BME280;47212;41.326;2.104;2023-03-13T11:07:56;101296.13;;;20.35;63.31
61337;BME280;47212;41.326;2.104;2023-03-13T11:12:58;101293.56;;;20.39;63.16
61337;BME280;47212;41.326;2.104;2023-03-13T11:23:48;101285.88;;;20.35;63.46
61337;BME280;47212;41.326;2.104;2023-03-13T11:29:30;101266.97;;;20.29;63.73
61337;BME280;47212;41.326;2.104;2023-03-13T11:34:49;101260.00;;;20.09;63.95
61337;BME280;47212;41.326;2.104;2023-03-13T11:51:06;101231.50;;;20.22;64.24
61337;BME280;47212;41.326;2.104;2023-03-13T11:56:20;101225.47;;;19.98;65.28
61337;BME280;47212;41.326;2.104;2023-03-13T12:01:33;101203.50;;;19.57;66.73
61337;BME280;47212;41.326;2.104;2023-03-13T12:06:48;101211.97;;;19.47;66.98
61337;BME280;47212;41.326;2.104;2023-03-13T12:12:04;101203.31;;;19.53;66.75
61337;BME280;47212;41.326;2.104;2023-03-13T12:28:38;101156.69;;;19.38;68.69
61337;BME280;47212;41.326;2.104;2023-03-13T12:39:05;101126.41;;;18.97;69.66
61337;BME280;47212;41.326;2.104;2023-03-13T12:44:17;101140.72;;;18.58;71.09
61337;BME280;47212;41.326;2.104;2023-03-13T12:50:00;101118.75;;;18.53;72.07
61337;BME280;47212;41.326;2.104;2023-03-13T13:00:29;101115.22;;;18.06;73.46
61337;BME280;47212;41.326;2.104;2023-03-13T13:05:32;101104.19;;;18.06;73.53
61337;BME280;47212;41.326;2.104;2023-03-13T13:10:34;101094.16;;;17.82;74.62
61337;BME280;47212;41.326;2.104;2023-03-13T13:15:57;101100.50;;;17.64;75.89
61337;BME280;47212;41.326;2.104;2023-03-13T13:36:55;101027.47;;;17.53;76.37
61337;BME280;47212;41.326;2.104;2023-03-13T13:47:38;100993.63;;;17.52;75.68
61337;BME280;47212;41.326;2.104;2023-03-13T13:53:22;100987.81;;;17.54;75.26
61337;BME280;47212;41.326;2.104;2023-03-13T13:58:35;100942.41;;;17.70;74.77
61337;BME280;47212;41.326;2.104;2023-03-13T14:03:43;100935.16;;;18.02;73.54
61337;BME280;47212;41.326;2.104;2023-03-13T14:08:47;100933.81;;;18.13;73.15
61337;BME280;47212;41.326;2.104;2023-03-13T14:14:13;100933.63;;;18.09;73.40
61337;BME280;47212;41.326;2.104;2023-03-13T14:24:26;100934.94;;;17.98;73.12
61337;BME280;47212;41.326;2.104;2023-03-13T14:29:30;100920.66;;;17.96;73.02
61337;BME280;47212;41.326;2.104;2023-03-13T14:34:34;100931.38;;;17.98;72.76
61337;BME280;47212;41.326;2.104;2023-03-13T14:39:47;100916.09;;;17.92;72.96
61337;BME280;47212;41.326;2.104;2023-03-13T14:44:50;100909.16;;;17.94;72.75
61337;BME280;47212;41.326;2.104;2023-03-13T14:50:10;100898.03;;;17.99;72.95
61337;BME280;47212;41.326;2.104;2023-03-13T15:00:35;100888.88;;;17.76;73.29
61337;BME280;47212;41.326;2.104;2023-03-13T15:05:38;100875.91;;;17.91;72.60
61337;BME280;47212;41.326;2.104;2023-03-13T15:10:41;100860.78;;;18.02;72.52
61337;BME280;47212;41.326;2.104;2023-03-13T15:15:46;100859.16;;;18.01;72.17
61337;BME280;47212;41.326;2.104;2023-03-13T15:20:54;100841.84;;;17.87;72.44
61337;BME280;47212;41.326;2.104;2023-03-13T15:25:56;100839.09;;;17.87;72.57
61337;BME280;47212;41.326;2.104;2023-03-13T15:30:59;100827.28;;;17.72;72.80
61337;BME280;47212;41.326;2.104;2023-03-13T15:36:01;100812.09;;;17.47;74.19
61337;BME280;47212;41.326;2.104;2023-03-13T15:41:04;100804.84;;;17.38;73.90
61337;BME280;47212;41.326;2.104;2023-03-13T15:46:27;100783.03;;;17.28;74.96
61337;BME280;47212;41.326;2.104;2023-03-13T15:52:30;100760.91;;;17.19;74.91
61337;BME280;47212;41.326;2.104;2023-03-13T16:04:09;100763.75;;;17.28;74.99
61337;BME280;47212;41.326;2.104;2023-03-13T16:10:05;100762.75;;;17.51;74.29
61337;BME280;47212;41.326;2.104;2023-03-13T16:15:43;100756.31;;;17.69;73.49
61337;BME280;47212;41.326;2.104;2023-03-13T16:20:50;100746.81;;;17.75;73.10
61337;BME280;47212;41.326;2.104;2023-03-13T16:25:53;100741.94;;;17.72;72.92
61337;BME280;47212;41.326;2.104;2023-03-13T16:30:59;100740.44;;;17.66;72.99
61337;BME280;47212;41.326;2.104;2023-03-13T16:36:18;100740.44;;;17.66;72.88
61337;BME280;47212;41.326;2.104;2023-03-13T16:41:33;100748.06;;;17.69;72.66
61337;BME280;47212;41.326;2.104;2023-03-13T16:46:40;100741.94;;;17.72;72.06
61337;BME280;47212;41.326;2.104;2023-03-13T16:52:05;100726.25;;;17.73;71.77
61337;BME280;47212;41.326;2.104;2023-03-13T16:57:21;100724.81;;;17.75;71.12
61337;BME280;47212;41.326;2.104;2023-03-13T17:02:24;100715.22;;;17.73;71.03
61337;BME280;47212;41.326;2.104;2023-03-13T17:07:36;100697.09;;;17.72;70.53
61337;BME280;47212;41.326;2.104;2023-03-13T17:12:40;100702.78;;;17.75;69.77
61337;BME280;47212;41.326;2.104;2023-03-13T17:17:43;100691.66;;;17.80;69.05
61337;BME280;47212;41.326;2.104;2023-03-13T17:22:53;100687.00;;;17.90;68.87
61337;BME280;47212;41.326;2.104;2023-03-13T17:27:58;100677.63;;;17.91;68.61
61337;BME280;47212;41.326;2.104;2023-03-13T17:33:00;100687.00;;;17.90;68.41
61337;BME280;47212;41.326;2.104;2023-03-13T17:38:09;100690.91;;;17.89;68.72
61337;BME280;47212;41.326;2.104;2023-03-13T17:43:12;100691.34;;;17.82;69.49
61337;BME280;47212;41.326;2.104;2023-03-13T17:48:18;100705.16;;;17.68;69.82
61337;BME280;47212;41.326;2.104;2023-03-13T17:53:21;100695.97;;;17.59;70.54
61337;BME280;47212;41.326;2.104;2023-03-13T17:58:25;100709.03;;;17.54;70.61
61337;BME280;47212;41.326;2.104;2023-03-13T18:03:28;100717.72;;;17.47;70.74
61337;BME280;47212;41.326;2.104;2023-03-13T18:08:34;100707.94;;;17.41;70.79
61337;BME280;47212;41.326;2.104;2023-03-13T18:13:40;100701.44;;;17.37;70.66
61337;BME280;47212;41.326;2.104;2023-03-13T18:18:42;100668.59;;;17.27;71.32
61337;BME280;47212;41.326;2.104;2023-03-13T18:23:51;100655.81;;;17.08;72.54
61337;BME280;47212;41.326;2.104;2023-03-13T18:29:00;100638.91;;;16.87;73.86
61337;BME280;47212;41.326;2.104;2023-03-13T18:34:03;100641.78;;;16.69;74.87
61337;BME280;47212;41.326;2.104;2023-03-13T18:39:06;100644.81;;;16.53;75.22
61337;BME280;47212;41.326;2.104;2023-03-13T18:44:08;100648.03;;;16.42;75.80
61337;BME280;47212;41.326;2.104;2023-03-13T18:49:17;100652.28;;;16.34;76.64
61337;BME280;47212;41.326;2.104;2023-03-13T18:54:23;100661.13;;;16.31;76.74
61337;BME280;47212;41.326;2.104;2023-03-13T18:59:26;100648.22;;;16.32;77.09
61337;BME280;47212;41.326;2.104;2023-03-13T19:04:31;100649.03;;;16.32;77.43
61337;BME280;47212;41.326;2.104;2023-03-13T19:09:34;100653.41;;;16.33;77.72
61337;BME280;47212;41.326;2.104;2023-03-13T19:14:47;100653.91;;;16.35;78.08
61337;BME280;47212;41.326;2.104;2023-03-13T19:19:50;100647.31;;;16.36;77.91
61337;BME280;47212;41.326;2.104;2023-03-13T19:24:58;100647.81;;;16.38;77.68
61337;BME280;47212;41.326;2.104;2023-03-13T19:30:01;100655.97;;;16.43;77.56
61337;BME280;47212;41.326;2.104;2023-03-13T19:35:05;100649.84;;;16.46;77.60
61337;BME280;47212;41.326;2.104;2023-03-13T19:40:23;100649.59;;;16.48;78.14
61337;BME280;47212;41.326;2.104;2023-03-13T19:45:27;100647.66;;;16.48;77.36
61337;BME280;47212;41.326;2.104;2023-03-13T19:50:44;100664.66;;;16.50;77.01
61337;BME280;47212;41.326;2.104;2023-03-13T19:55:47;100672.88;;;16.50;77.02
61337;BME280;47212;41.326;2.104;2023-03-13T20:00:53;100653.72;;;16.45;76.82
61337;BME280;47212;41.326;2.104;2023-03-13T20:05:59;100644.97;;;16.43;77.16
61337;BME280;47212;41.326;2.104;2023-03-13T20:11:02;100646.19;;;16.37;76.87
61337;BME280;47212;41.326;2.104;2023-03-13T20:16:07;100645.25;;;16.28;77.15
61337;BME280;47212;41.326;2.104;2023-03-13T20:21:13;100634.97;;;16.20;77.64
61337;BME280;47212;41.326;2.104;2023-03-13T20:26:18;100615.94;;;16.10;78.26
61337;BME280;47212;41.326;2.104;2023-03-13T20:31:26;100627.22;;;16.08;77.86
61337;BME280;47212;41.326;2.104;2023-03-13T20:36:29;100621.41;;;16.10;78.00
61337;BME280;47212;41.326;2.104;2023-03-13T20:41:32;100623.34;;;16.09;78.41
61337;BME280;47212;41.326;2.104;2023-03-13T20:46:35;100644.41;;;16.14;77.92
61337;BME280;47212;41.326;2.104;2023-03-13T20:51:51;100650.41;;;16.16;77.90
61337;BME280;47212;41.326;2.104;2023-03-13T20:56:56;100640.16;;;16.21;77.51
61337;BME280;47212;41.326;2.104;2023-03-13T21:01:59;100636.00;;;16.24;77.12
61337;BME280;47212;41.326;2.104;2023-03-13T21:07:06;100651.25;;;16.30;76.42
61337;BME280;47212;41.326;2.104;2023-03-13T21:12:16;100641.00;;;16.36;76.09
61337;BME280;47212;41.326;2.104;2023-03-13T21:17:21;100650.47;;;16.43;75.96
61337;BME280;47212;41.326;2.104;2023-03-13T21:22:25;100655.34;;;16.46;75.45
61337;BME280;47212;41.326;2.104;2023-03-13T21:27:31;100648.75;;;16.47;75.54
61337;BME280;47212;41.326;2.104;2023-03-13T21:32:36;100669.09;;;16.46;75.55
61337;BME280;47212;41.326;2.104;2023-03-13T21:37:41;100693.81;;;16.46;75.33
61337;BME280;47212;41.326;2.104;2023-03-13T21:42:44;100686.69;;;16.45;75.46
61337;BME280;47212;41.326;2.104;2023-03-13T21:47:47;100705.34;;;16.48;75.06
61337;BME280;47212;41.326;2.104;2023-03-13T21:52:50;100706.47;;;16.47;75.12
61337;BME280;47212;41.326;2.104;2023-03-13T21:57:52;100699.59;;;16.45;74.89
61337;BME280;47212;41.326;2.104;2023-03-13T22:02:56;100685.56;;;16.46;74.92
61337;BME280;47212;41.326;2.104;2023-03-13T22:07:59;100689.97;;;16.47;74.28
61337;BME280;47212;41.326;2.104;2023-03-13T22:13:01;100689.06;;;16.52;72.26
61337;BME280;47212;41.326;2.104;2023-03-13T22:18:04;100697.13;;;16.62;71.22
61337;BME280;47212;41.326;2.104;2023-03-13T22:23:09;100678.63;;;16.68;70.54
61337;BME280;47212;41.326;2.104;2023-03-13T22:28:11;100672.53;;;16.71;66.22
61337;BME280;47212;41.326;2.104;2023-03-13T22:33:14;100673.94;;;16.82;66.22
61337;BME280;47212;41.326;2.104;2023-03-13T22:38:17;100618.03;;;17.00;56.45
61337;BME280;47212;41.326;2.104;2023-03-13T22:43:21;100651.56;;;17.52;52.79
61337;BME280;47212;41.326;2.104;2023-03-13T22:48:24;100662.66;;;18.05;47.01
61337;BME280;47212;41.326;2.104;2023-03-13T22:53:28;100641.16;;;18.38;44.18
61337;BME280;47212;41.326;2.104;2023-03-13T22:58:38;100652.81;;;18.66;39.67
61337;BME280;47212;41.326;2.104;2023-03-13T23:03:41;100635.03;;;18.81;39.83
61337;BME280;47212;41.326;2.104;2023-03-13T23:08:44;100651.78;;;18.93;37.38
61337;BME280;47212;41.326;2.104;2023-03-13T23:13:47;100680.19;;;19.02;36.95
61337;BME280;47212;41.326;2.104;2023-03-13T23:18:49;100693.97;;;19.02;35.37
61337;BME280;47212;41.326;2.104;2023-03-13T23:23:53;100702.91;;;18.99;38.08
61337;BME280;47212;41.326;2.104;2023-03-13T23:28:57;100727.22;;;18.97;37.15
61337;BME280;47212;41.326;2.104;2023-03-13T23:34:02;100741.66;;;18.94;38.24
61337;BME280;47212;41.326;2.104;2023-03-13T23:39:05;100762.25;;;18.88;38.30
61337;BME280;47212;41.326;2.104;2023-03-13T23:44:07;100769.03;;;18.82;37.58
61337;BME280;47212;41.326;2.104;2023-03-13T23:49:11;100762.03;;;18.76;38.62
61337;BME280;47212;41.326;2.104;2023-03-13T23:54:16;100766.66;;;18.67;38.42
61337;BME280;47212;41.326;2.104;2023-03-13T23:59:19;100777.31;;;18.60;39.39
